Time;durP1;ratioP1;P1;durP2;ratioP2;P2;SDS_P1;SDS_P2;PMS_P1;PMS_P2;Temp;Humidity;BMP_temperature;BMP_pressure;BME280_temperature;BME280_humidity;BME280_pressure;Samples;Min_cycle;Max_cycle;Signal;HPM_P1;HPM_P2
2023/03/11 00:02:09;;;;;;;0.68;0.68;;;1.70;94.20;;;;;;5070201;28;20227;-68
2023/03/11 00:04:36;;;;;;;0.30;0.30;;;1.70;94.30;;;;;;5068796;28;20198;-68
2023/03/11 00:07:06;;;;;;;0.60;0.60;;;1.60;94.50;;;;;;5063105;28;20227;-68
2023/03/11 00:09:33;;;;;;;0.30;0.30;;;1.50;94.70;;;;;;5068079;28;20566;-67
2023/03/11 00:12:00;;;;;;;0.30;0.30;;;1.50;94.20;;;;;;5062245;28;20229;-67
2023/03/11 00:14:27;;;;;;;0.30;0.20;;;1.50;94.20;;;;;;5070063;28;20201;-66
2023/03/11 00:16:55;;;;;;;0.30;0.20;;;1.50;94.50;;;;;;5068882;28;20233;-66
2023/03/11 00:19:22;;;;;;;0.30;0.20;;;1.50;94.50;;;;;;5068606;28;20211;-66
2023/03/11 00:21:49;;;;;;;0.30;0.30;;;1.50;94.70;;;;;;5069528;28;20216;-67
2023/03/11 00:24:15;;;;;;;0.30;0.20;;;1.50;95.00;;;;;;5070677;28;20210;-66
2023/03/11 00:26:42;;;;;;;0.30;0.30;;;1.50;99.90;;;;;;5069474;28;20230;-66
2023/03/11 00:29:09;;;;;;;0.30;0.30;;;1.50;95.00;;;;;;5069971;28;20207;-67
2023/03/11 00:31:35;;;;;;;0.30;0.30;;;1.60;95.00;;;;;;5054142;28;20213;-67
2023/03/11 00:34:04;;;;;;;0.30;0.30;;;1.60;95.20;;;;;;5070867;28;20195;-67
2023/03/11 00:36:32;;;;;;;0.30;0.30;;;1.60;95.30;;;;;;5070173;28;20223;-67
2023/03/11 00:39:00;;;;;;;2.05;0.40;;;1.70;95.00;;;;;;5069002;28;20198;-68
2023/03/11 00:41:27;;;;;;;0.30;0.30;;;1.70;94.80;;;;;;5070162;28;20220;-68
2023/03/11 00:43:54;;;;;;;0.30;0.30;;;1.70;99.90;;;;;;5071004;28;20203;-67
2023/03/11 00:46:21;;;;;;;0.30;0.20;;;1.80;99.90;;;;;;5069973;28;20233;-67
2023/03/11 00:48:50;;;;;;;0.30;0.30;;;1.80;94.90;;;;;;5069900;28;20225;-67
2023/03/11 00:51:19;;;;;;;0.30;0.30;;;1.80;95.10;;;;;;5069823;28;20726;-67
2023/03/11 00:53:46;;;;;;;0.30;0.30;;;1.80;95.30;;;;;;5069927;28;20194;-67
2023/03/11 00:56:14;;;;;;;0.30;0.30;;;1.80;95.40;;;;;;5070067;28;20211;-67
2023/03/11 00:58:43;;;;;;;0.45;0.45;;;1.80;95.10;;;;;;5069399;28;20191;-67
2023/03/11 01:01:11;;;;;;;0.30;0.30;;;1.80;95.10;;;;;;5069883;28;20707;-68
2023/03/11 01:03:38;;;;;;;0.30;0.30;;;1.80;95.50;;;;;;5069660;28;20196;-67
2023/03/11 01:06:07;;;;;;;0.30;0.30;;;1.60;99.90;;;;;;5069270;28;20599;-68
2023/03/11 01:08:36;;;;;;;0.40;0.40;;;1.70;95.40;;;;;;5069314;28;20206;-67
2023/03/11 01:11:04;;;;;;;0.30;0.30;;;1.90;95.50;;;;;;5069943;28;20238;-66
2023/03/11 01:13:31;;;;;;;1.45;0.50;;;1.80;95.50;;;;;;5070541;28;20759;-67
2023/03/11 01:15:58;;;;;;;0.30;0.30;;;1.80;95.20;;;;;;5069804;28;20231;-67
2023/03/11 01:18:25;;;;;;;0.30;0.20;;;1.80;95.50;;;;;;5069337;28;20227;-67
2023/03/11 01:20:52;;;;;;;0.60;0.60;;;2.10;99.90;;;;;;5069418;28;20238;-67
2023/03/11 01:23:20;;;;;;;0.77;0.45;;;1.80;95.60;;;;;;5069534;28;20726;-67
2023/03/11 01:25:48;;;;;;;0.30;0.30;;;1.80;95.30;;;;;;5069680;28;20218;-66
2023/03/11 01:28:15;;;;;;;0.40;0.40;;;1.70;95.60;;;;;;5069734;28;20215;-67
2023/03/11 01:30:42;;;;;;;1.20;0.73;;;1.70;95.70;;;;;;5070007;28;20219;-67
2023/03/11 01:33:13;;;;;;;0.40;0.40;;;1.60;95.50;;;;;;5069334;28;20195;-67
2023/03/11 01:35:41;;;;;;;0.30;0.30;;;1.50;95.60;;;;;;5070190;28;20234;-67
2023/03/11 01:38:07;;;;;;;0.43;0.43;;;1.50;95.70;;;;;;5068754;28;20211;-67
2023/03/11 01:40:37;;;;;;;0.30;0.30;;;1.40;95.70;;;;;;5069590;28;20761;-66
2023/03/11 01:43:07;;;;;;;0.30;0.30;;;1.40;95.30;;;;;;5070158;28;20218;-66
2023/03/11 01:45:41;;;;;;;0.40;0.40;;;1.30;99.90;;;;;;5069786;28;20298;-67
2023/03/11 01:48:09;;;;;;;0.30;0.30;;;1.30;94.20;;;;;;5068994;28;20203;-66
2023/03/11 01:50:40;;;;;;;0.82;0.70;;;1.20;94.00;;;;;;5069811;28;20215;-67
2023/03/11 01:53:08;;;;;;;0.35;0.35;;;1.20;94.00;;;;;;5069672;28;20191;-67
2023/03/11 01:55:35;;;;;;;0.30;0.30;;;1.10;99.90;;;;;;5069261;28;20229;-66
2023/03/11 01:58:04;;;;;;;0.68;0.68;;;1.10;94.30;;;;;;5069366;28;20222;-68
2023/03/11 02:00:33;;;;;;;0.55;0.55;;;1.00;99.90;;;;;;5068524;28;20931;-66
2023/03/11 02:03:04;;;;;;;0.30;0.30;;;1.10;99.90;;;;;;5068739;28;20192;-66
2023/03/11 02:05:32;;;;;;;0.40;0.40;;;1.10;95.10;;;;;;5050584;28;20250;-67
2023/03/11 02:08:00;;;;;;;0.30;0.20;;;1.10;94.40;;;;;;5069260;28;20671;-67
2023/03/11 02:10:27;;;;;;;0.30;0.30;;;1.10;94.80;;;;;;5068635;28;20219;-67
2023/03/11 02:12:54;;;;;;;0.40;0.40;;;1.60;99.70;;;;;;5069174;28;20285;-66
2023/03/11 02:15:21;;;;;;;0.30;0.30;;;1.10;94.10;;;;;;5070414;28;20203;-67
2023/03/11 02:17:50;;;;;;;0.30;0.30;;;1.10;94.00;;;;;;5057471;28;20222;-67
2023/03/11 02:20:29;;;;;;;0.30;0.30;;;1.10;93.90;;;;;;5072023;28;20195;-68
2023/03/11 02:22:59;;;;;;;0.30;0.30;;;1.20;93.90;;;;;;5073182;28;20211;-67
2023/03/11 02:25:32;;;;;;;0.30;0.30;;;1.30;95.20;;;;;;5072311;28;20264;-67
2023/03/11 02:28:04;;;;;;;0.40;0.40;;;1.10;99.90;;;;;;5072901;28;20561;-67
2023/03/11 02:30:32;;;;;;;0.30;0.30;;;1.10;94.40;;;;;;5072562;28;20302;-66
2023/03/11 02:33:01;;;;;;;0.40;0.40;;;1.10;94.40;;;;;;5072691;28;20192;-68
2023/03/11 02:35:30;;;;;;;0.30;0.30;;;1.10;99.90;;;;;;5072987;28;20223;-67
2023/03/11 02:37:57;;;;;;;0.40;0.40;;;1.10;94.50;;;;;;5072196;28;20219;-66
2023/03/11 02:40:54;;;;;;;0.30;0.30;;;1.10;94.50;;;;;;5071681;28;20219;-67
2023/03/11 02:43:29;;;;;;;0.30;0.30;;;1.10;94.70;;;;;;5066471;28;20207;-66
2023/03/11 02:45:57;;;;;;;0.30;0.30;;;1.00;99.90;;;;;;5072861;28;20776;-66
2023/03/11 02:48:27;;;;;;;0.63;0.60;;;0.90;99.90;;;;;;5071080;28;20199;-67
2023/03/11 02:50:55;;;;;;;0.30;0.30;;;0.90;99.90;;;;;;5072697;28;20215;-66
2023/03/11 02:53:22;;;;;;;0.30;0.30;;;0.80;99.90;;;;;;5072762;28;20199;-66
2023/03/11 02:55:50;;;;;;;0.30;0.30;;;0.80;93.80;;;;;;5072451;28;20291;-66
2023/03/11 02:58:18;;;;;;;0.57;0.40;;;0.70;93.30;;;;;;5070990;28;20218;-68
2023/03/11 03:00:46;;;;;;;0.30;0.30;;;0.70;93.50;;;;;;5072698;28;20215;-68
2023/03/11 03:03:14;;;;;;;0.30;0.30;;;0.50;99.90;;;;;;5072692;28;20199;-67
2023/03/11 03:05:43;;;;;;;0.55;0.55;;;0.40;99.90;;;;;;5072155;28;20650;-66
2023/03/11 03:08:10;;;;;;;0.35;0.35;;;;;;;;;;5071372;28;20558;-66
2023/03/11 03:10:37;;;;;;;0.40;0.40;;;0.30;99.90;;;;;;5072343;28;20215;-66
2023/03/11 03:13:04;;;;;;;0.40;0.40;;;;;;;;;;5072474;28;20700;-67
2023/03/11 03:15:31;;;;;;;0.40;0.40;;;0.20;99.90;;;;;;5071517;28;20758;-66
2023/03/11 03:17:59;;;;;;;0.30;0.30;;;0.10;99.90;;;;;;5072580;28;20729;-67
2023/03/11 03:20:26;;;;;;;0.40;0.40;;;0.20;99.90;;;;;;5071001;28;20736;-67
2023/03/11 03:22:54;;;;;;;0.52;0.52;;;0.70;99.90;;;;;;5071986;28;20199;-66
2023/03/11 03:25:22;;;;;;;0.30;0.30;;;0.80;97.60;;;;;;5071397;28;20266;-67
2023/03/11 03:27:50;;;;;;;0.60;0.60;;;;;;;;;;5071090;28;20198;-67
2023/03/11 03:30:18;;;;;;;0.60;0.60;;;0.20;99.90;;;;;;5070979;28;20543;-67
2023/03/11 03:32:47;;;;;;;0.77;0.43;;;;;;;;;;5072192;28;20305;-66
2023/03/11 03:35:16;;;;;;;0.38;0.38;;;0.20;99.90;;;;;;5071628;28;20202;-67
2023/03/11 03:37:43;;;;;;;0.40;0.40;;;0.10;99.90;;;;;;5071404;28;20302;-67
2023/03/11 03:40:11;;;;;;;0.30;0.30;;;0.10;99.90;;;;;;5055917;28;20195;-66
2023/03/11 03:42:39;;;;;;;0.50;0.50;;;0.10;99.90;;;;;;5071292;28;20657;-67
2023/03/11 03:45:08;;;;;;;0.30;0.30;;;0.10;93.80;;;;;;5072156;28;20198;-67
2023/03/11 03:47:36;;;;;;;0.35;0.35;;;0.10;99.90;;;;;;5071516;28;20204;-67
2023/03/11 03:50:04;;;;;;;0.30;0.30;;;0.00;94.90;;;;;;5070968;28;20199;-67
2023/03/11 03:52:35;;;;;;;0.30;0.30;;;-0.10;99.90;;;;;;5071246;28;20200;-67
2023/03/11 03:55:02;;;;;;;1.30;1.30;;;-0.10;99.90;;;;;;5071079;28;20318;-66
2023/03/11 03:57:30;;;;;;;0.80;0.80;;;0.00;99.90;;;;;;5071318;28;20261;-66
2023/03/11 03:59:58;;;;;;;0.80;0.50;;;;;;;;;;5070800;28;20216;-67
2023/03/11 04:02:25;;;;;;;0.40;0.40;;;-0.70;98.60;;;;;;5071197;28;20220;-66
2023/03/11 04:04:52;;;;;;;0.40;0.40;;;-0.20;99.90;;;;;;5070743;28;20199;-67
2023/03/11 04:07:20;;;;;;;0.40;0.40;;;;;;;;;;5071401;28;20208;-68
2023/03/11 04:09:49;;;;;;;0.55;0.55;;;-0.60;94.70;;;;;;5070026;28;20206;-66
2023/03/11 04:12:17;;;;;;;0.32;0.32;;;-0.20;97.80;;;;;;5070745;28;20727;-67
2023/03/11 04:14:44;;;;;;;0.50;0.50;;;-0.10;99.90;;;;;;5071545;28;20191;-66
2023/03/11 04:17:11;;;;;;;0.30;0.30;;;-0.40;99.90;;;;;;5071125;28;20260;-67
2023/03/11 04:19:38;;;;;;;0.40;0.40;;;;;;;;;;5069607;28;20253;-66
2023/03/11 04:22:06;;;;;;;0.30;0.30;;;-0.30;99.90;;;;;;5070327;28;20212;-66
2023/03/11 04:24:33;;;;;;;0.63;0.60;;;-0.30;99.90;;;;;;5071526;28;20199;-67
2023/03/11 04:27:01;;;;;;;0.52;0.52;;;-0.30;99.90;;;;;;5070153;28;20310;-66
2023/03/11 04:29:28;;;;;;;0.40;0.40;;;-0.40;97.80;;;;;;5070301;28;20199;-67
2023/03/11 04:31:55;;;;;;;0.47;0.47;;;-0.30;99.90;;;;;;5070314;28;20323;-66
2023/03/11 04:34:22;;;;;;;0.40;0.40;;;;;;;;;;5071005;28;20194;-67
2023/03/11 04:36:52;;;;;;;0.32;0.32;;;0.10;99.30;;;;;;5069647;28;20229;-67
2023/03/11 04:39:19;;;;;;;0.30;0.30;;;;;;;;;;5068767;28;20219;-67
2023/03/11 04:41:45;;;;;;;0.40;0.40;;;-0.40;99.90;;;;;;5070070;28;20207;-67
2023/03/11 04:44:14;;;;;;;0.30;0.30;;;-0.50;99.90;;;;;;5070607;28;20207;-66
2023/03/11 04:46:40;;;;;;;0.30;0.30;;;-0.40;99.90;;;;;;5070544;28;20697;-67
2023/03/11 04:49:07;;;;;;;0.30;0.30;;;-0.50;99.90;;;;;;5068850;28;20191;-67
2023/03/11 04:51:34;;;;;;;0.40;0.40;;;0.20;96.50;;;;;;5070151;28;20286;-66
2023/03/11 04:54:01;;;;;;;0.30;0.30;;;;;;;;;;5071123;28;20211;-66
2023/03/11 04:56:28;;;;;;;0.40;0.40;;;;;;;;;;5069862;28;20216;-66
2023/03/11 04:58:55;;;;;;;0.30;0.30;;;-0.60;98.30;;;;;;5069674;28;20229;-66
2023/03/11 05:01:23;;;;;;;0.30;0.30;;;-0.60;99.90;;;;;;5070013;28;20215;-66
2023/03/11 05:03:50;;;;;;;0.40;0.40;;;-0.50;99.90;;;;;;5069402;28;20228;-66
2023/03/11 05:06:17;;;;;;;0.30;0.30;;;-0.60;95.70;;;;;;5070040;28;20245;-67
2023/03/11 05:08:43;;;;;;;0.40;0.40;;;-0.50;95.80;;;;;;5068912;28;20653;-66
2023/03/11 05:11:10;;;;;;;0.40;0.40;;;-0.60;99.90;;;;;;5069949;28;20577;-66
2023/03/11 05:13:37;;;;;;;0.30;0.30;;;;;;;;;;5069754;28;20199;-66
2023/03/11 05:16:05;;;;;;;0.40;0.40;;;-0.60;95.80;;;;;;5069718;28;20284;-66
2023/03/11 05:18:33;;;;;;;0.30;0.30;;;-0.60;99.90;;;;;;5069524;28;20250;-67
2023/03/11 05:21:00;;;;;;;0.40;0.40;;;;;;;;;;5069693;28;20237;-66
2023/03/11 05:23:27;;;;;;;0.35;0.35;;;-0.70;99.90;;;;;;5069930;28;20199;-66
2023/03/11 05:25:54;;;;;;;0.45;0.45;;;;;;;;;;5070093;28;20237;-66
2023/03/11 05:28:21;;;;;;;0.30;0.30;;;-0.60;99.90;;;;;;5069001;28;20203;-66
2023/03/11 05:30:49;;;;;;;0.30;0.30;;;;;;;;;;5069424;28;20223;-66
2023/03/11 05:33:16;;;;;;;0.30;0.30;;;;;;;;;;5069775;28;20649;-66
2023/03/11 05:35:44;;;;;;;0.50;0.50;;;-0.50;99.90;;;;;;5069829;28;20219;-66
2023/03/11 05:38:11;;;;;;;0.55;0.47;;;-0.60;99.90;;;;;;5068547;28;20689;-66
2023/03/11 05:40:38;;;;;;;0.43;0.43;;;;;;;;;;5069400;28;20211;-67
2023/03/11 05:43:05;;;;;;;0.50;0.50;;;-0.70;99.90;;;;;;5070133;28;20195;-66
2023/03/11 05:45:32;;;;;;;0.50;0.50;;;-0.70;99.90;;;;;;5069110;28;20225;-66
2023/03/11 05:47:59;;;;;;;0.30;0.30;;;;;;;;;;5069863;28;20203;-66
2023/03/11 05:50:25;;;;;;;1.17;0.63;;;-0.70;99.90;;;;;;5072221;28;20234;-66
2023/03/11 05:52:54;;;;;;;0.30;0.30;;;-0.60;96.00;;;;;;5073714;28;20191;-67
2023/03/11 05:55:20;;;;;;;0.30;0.30;;;-0.60;99.90;;;;;;5073681;28;20560;-66
2023/03/11 05:57:50;;;;;;;0.40;0.40;;;-0.60;96.10;;;;;;5057582;28;20514;-67
2023/03/11 06:00:19;;;;;;;0.40;0.40;;;-0.70;99.90;;;;;;5072579;28;20204;-66
2023/03/11 06:02:46;;;;;;;0.50;0.50;;;-0.60;99.90;;;;;;5073628;28;20204;-66
2023/03/11 06:05:13;;;;;;;2.05;1.70;;;-0.70;99.20;;;;;;5074001;28;20680;-67
2023/03/11 06:07:39;;;;;;;0.40;0.40;;;-0.70;99.90;;;;;;5072961;28;20664;-66
2023/03/11 06:10:09;;;;;;;2.17;0.60;;;-0.60;99.90;;;;;;5072898;28;20202;-66
2023/03/11 06:12:37;;;;;;;0.30;0.30;;;-0.60;99.90;;;;;;5072646;28;20561;-66
2023/03/11 06:15:05;;;;;;;0.30;0.30;;;-0.70;99.90;;;;;;5073168;28;20239;-67
2023/03/11 06:17:32;;;;;;;0.40;0.40;;;-0.60;99.90;;;;;;5073346;28;20278;-66
2023/03/11 06:19:59;;;;;;;0.30;0.30;;;-0.50;99.90;;;;;;5072466;28;20726;-66
2023/03/11 06:22:25;;;;;;;0.40;0.40;;;-0.60;99.90;;;;;;5072250;28;20214;-67
2023/03/11 06:24:52;;;;;;;0.50;0.50;;;;;;;;;;5073497;28;20563;-67
2023/03/11 06:27:21;;;;;;;0.38;0.38;;;-0.60;97.00;;;;;;5073106;28;20318;-67
2023/03/11 06:29:52;;;;;;;0.30;0.30;;;-0.60;95.40;;;;;;5071990;28;20268;-66
2023/03/11 06:32:18;;;;;;;0.30;0.30;;;-0.40;99.90;;;;;;5072801;28;20571;-66
2023/03/11 06:34:46;;;;;;;0.30;0.30;;;;;;;;;;5073252;28;20210;-66
2023/03/11 06:37:12;;;;;;;0.38;0.38;;;-0.60;99.90;;;;;;5072574;28;20215;-66
2023/03/11 06:39:39;;;;;;;0.30;0.30;;;-0.50;99.90;;;;;;5071296;28;20208;-66
2023/03/11 06:42:10;;;;;;;0.40;0.40;;;-0.50;97.10;;;;;;5072693;28;20219;-66
2023/03/11 06:44:38;;;;;;;0.40;0.40;;;-0.40;95.50;;;;;;5072589;28;20207;-66
2023/03/11 06:47:05;;;;;;;0.30;0.30;;;-0.40;99.90;;;;;;5071023;28;20224;-66
2023/03/11 06:49:32;;;;;;;0.30;0.30;;;;;;;;;;5071691;28;20278;-66
2023/03/11 06:51:59;;;;;;;0.40;0.40;;;;;;;;;;5072160;28;20215;-67
2023/03/11 06:54:26;;;;;;;0.30;0.30;;;;;;;;;;5073212;28;20192;-66
2023/03/11 06:56:53;;;;;;;0.40;0.40;;;-0.20;99.90;;;;;;5070980;28;20215;-66
2023/03/11 06:59:21;;;;;;;1.38;0.60;;;;;;;;;;5070945;28;20211;-66
2023/03/11 07:01:49;;;;;;;0.52;0.52;;;-0.10;95.30;;;;;;5070590;28;20207;-67
2023/03/11 07:04:17;;;;;;;0.30;0.30;;;;;;;;;;5072022;28;20199;-67
2023/03/11 07:06:44;;;;;;;0.40;0.40;;;0.00;99.90;;;;;;5070124;28;20725;-68
2023/03/11 07:09:11;;;;;;;0.30;0.30;;;0.00;99.90;;;;;;5070123;28;20198;-68
2023/03/11 07:11:39;;;;;;;0.40;0.40;;;0.00;97.20;;;;;;5069420;28;20229;-68
2023/03/11 07:14:06;;;;;;;0.40;0.40;;;;;;;;;;5070786;28;20223;-68
2023/03/11 07:16:33;;;;;;;0.40;0.40;;;0.20;99.90;;;;;;5070474;28;20222;-68
2023/03/11 07:19:02;;;;;;;0.38;0.38;;;0.70;99.90;;;;;;5068010;28;20233;-69
2023/03/11 07:21:31;;;;;;;0.30;0.30;;;0.40;94.30;;;;;;5070483;28;20223;-68
2023/03/11 07:24:00;;;;;;;0.30;0.30;;;0.10;99.90;;;;;;5070788;28;20261;-67
2023/03/11 07:26:28;;;;;;;0.30;0.30;;;0.30;99.90;;;;;;5069792;28;20709;-67
2023/03/11 07:28:56;;;;;;;0.30;0.30;;;0.50;93.90;;;;;;5070699;28;20200;-67
2023/03/11 07:31:25;;;;;;;0.30;0.30;;;0.40;93.50;;;;;;5071206;28;20217;-66
2023/03/11 07:33:52;;;;;;;0.40;0.40;;;0.40;99.90;;;;;;5071538;28;20203;-66
2023/03/11 07:36:23;;;;;;;0.40;0.40;;;0.40;99.90;;;;;;5072063;28;20582;-68
2023/03/11 07:38:57;;;;;;;0.30;0.30;;;0.40;99.90;;;;;;5071607;28;20223;-67
2023/03/11 07:41:24;;;;;;;0.30;0.30;;;0.50;99.90;;;;;;5071113;28;20219;-68
2023/03/11 07:43:55;;;;;;;0.40;0.40;;;1.20;99.90;;;;;;5071782;28;20290;-67
2023/03/11 07:46:22;;;;;;;0.30;0.30;;;0.30;95.30;;;;;;5070588;28;20774;-68
2023/03/11 07:48:50;;;;;;;0.30;0.30;;;0.70;92.70;;;;;;5070266;28;20187;-68
2023/03/11 07:51:19;;;;;;;0.55;0.55;;;0.80;99.90;;;;;;5071415;28;20223;-67
2023/03/11 07:53:48;;;;;;;0.65;0.65;;;0.90;94.40;;;;;;5070979;28;20687;-67
2023/03/11 07:56:17;;;;;;;0.30;0.30;;;1.00;99.90;;;;;;5070268;28;20227;-68
2023/03/11 07:58:44;;;;;;;1.05;0.60;;;1.00;92.40;;;;;;5069130;28;20219;-67
2023/03/11 08:01:15;;;;;;;0.30;0.30;;;1.10;99.90;;;;;;5070468;28;20219;-68
2023/03/11 08:03:42;;;;;;;0.30;0.30;;;1.60;99.90;;;;;;5051577;28;20212;-68
2023/03/11 08:06:13;;;;;;;0.30;0.25;;;0.50;94.90;;;;;;5065425;28;20217;-68
2023/03/11 08:08:39;;;;;;;0.30;0.30;;;1.20;99.90;;;;;;5069919;28;20813;-68
2023/03/11 08:11:08;;;;;;;0.30;0.30;;;1.20;98.60;;;;;;5070354;28;20211;-67
2023/03/11 08:13:35;;;;;;;0.30;0.20;;;1.10;99.90;;;;;;5070787;28;20667;-68
2023/03/11 08:16:03;;;;;;;0.30;0.30;;;1.20;98.60;;;;;;5068960;28;20748;-68
2023/03/11 08:18:30;;;;;;;0.30;0.30;;;0.60;92.90;;;;;;5069339;28;20191;-68
2023/03/11 08:20:57;;;;;;;0.30;0.30;;;0.70;90.80;;;;;;5070617;28;20220;-68
2023/03/11 08:23:24;;;;;;;0.30;0.30;;;1.30;99.00;;;;;;5070869;28;20195;-68
2023/03/11 08:25:51;;;;;;;0.30;0.30;;;;;;;;;;5069204;28;20218;-67
2023/03/11 08:28:19;;;;;;;0.30;0.30;;;1.50;99.60;;;;;;5069516;28;20202;-67
2023/03/11 08:30:46;;;;;;;0.60;0.60;;;1.60;98.50;;;;;;5070230;28;20230;-67
2023/03/11 08:33:13;;;;;;;0.30;0.28;;;1.90;96.70;;;;;;5070331;28;20274;-66
2023/03/11 08:35:40;;;;;;;0.30;0.30;;;;;;;;;;5070396;28;20219;-67
2023/03/11 08:38:07;;;;;;;0.38;0.38;;;;;;;;;;5069452;28;20665;-67
2023/03/11 08:40:34;;;;;;;0.30;0.30;;;2.10;98.00;;;;;;5068451;28;20227;-67
2023/03/11 08:43:00;;;;;;;0.70;0.43;;;1.90;99.90;;;;;;5070388;28;20659;-67
2023/03/11 08:45:28;;;;;;;1.30;0.50;;;1.90;97.40;;;;;;5069998;28;20229;-67
2023/03/11 08:47:55;;;;;;;0.60;0.45;;;2.00;99.40;;;;;;5070139;28;20191;-66
2023/03/11 08:50:22;;;;;;;6.13;2.25;;;1.40;99.90;;;;;;5069187;28;20199;-66
2023/03/11 08:52:49;;;;;;;0.47;0.45;;;2.40;99.90;;;;;;5053888;28;20196;-67
2023/03/11 08:55:23;;;;;;;0.60;0.50;;;2.20;99.90;;;;;;5070161;28;20222;-67
2023/03/11 08:57:50;;;;;;;0.30;0.30;;;2.10;87.30;;;;;;5070232;28;20248;-67
2023/03/11 09:00:18;;;;;;;0.40;0.30;;;2.40;94.80;;;;;;5051063;28;20263;-67
2023/03/11 09:02:47;;;;;;;0.30;0.30;;;2.40;87.30;;;;;;5069974;28;20191;-67
2023/03/11 09:05:14;;;;;;;0.30;0.30;;;2.50;96.20;;;;;;5069611;28;20187;-68
2023/03/11 09:07:41;;;;;;;0.30;0.30;;;2.10;99.30;;;;;;5068367;28;20717;-67
2023/03/11 09:10:08;;;;;;;0.30;0.20;;;2.60;85.20;;;;;;5069131;28;20199;-67
2023/03/11 09:12:35;;;;;;;0.30;0.28;;;2.80;99.90;;;;;;5069744;28;20195;-67
2023/03/11 09:15:02;;;;;;;0.50;0.50;;;3.00;98.40;;;;;;5070077;28;20203;-66
2023/03/11 09:17:29;;;;;;;0.30;0.30;;;2.90;95.60;;;;;;5069661;28;20201;-67
2023/03/11 09:19:57;;;;;;;0.30;0.25;;;2.90;95.20;;;;;;5068527;28;20218;-68
2023/03/11 09:22:24;;;;;;;0.30;0.30;;;2.80;84.80;;;;;;5069705;28;20648;-67
2023/03/11 09:24:50;;;;;;;0.30;0.28;;;2.90;99.60;;;;;;5069539;28;20195;-67
2023/03/11 09:27:17;;;;;;;0.30;0.30;;;2.40;96.70;;;;;;5069333;28;20724;-67
2023/03/11 09:29:44;;;;;;;0.43;0.43;;;2.50;83.70;;;;;;5068822;28;20283;-67
2023/03/11 09:32:13;;;;;;;0.30;0.20;;;2.60;98.20;;;;;;5069552;28;20219;-67
2023/03/11 09:34:40;;;;;;;0.30;0.20;;;2.40;98.50;;;;;;5069410;28;20846;-66
2023/03/11 09:37:08;;;;;;;0.30;0.28;;;2.40;84.50;;;;;;5069219;28;20709;-67
2023/03/11 09:39:35;;;;;;;0.30;0.20;;;2.40;84.90;;;;;;5068556;28;20219;-67
2023/03/11 09:42:11;;;;;;;0.55;0.47;;;2.60;86.10;;;;;;5069237;28;20222;-67
2023/03/11 09:44:43;;;;;;;0.40;0.40;;;2.80;85.00;;;;;;5070049;28;20286;-67
2023/03/11 09:47:30;;;;;;;0.30;0.30;;;2.80;97.00;;;;;;5068590;28;20215;-67
2023/03/11 09:50:13;;;;;;;0.30;0.20;;;3.70;81.00;;;;;;5068617;28;20237;-67
2023/03/11 09:52:46;;;;;;;0.30;0.20;;;3.70;81.60;;;;;;5069826;28;20556;-67
2023/03/11 09:55:29;;;;;;;0.70;0.40;;;4.30;97.20;;;;;;5069175;28;20199;-68
2023/03/11 09:57:59;;;;;;;0.30;0.30;;;4.30;81.60;;;;;;5069770;28;20199;-67
2023/03/11 10:00:26;;;;;;;0.30;0.20;;;4.30;81.60;;;;;;5068539;28;20275;-67
2023/03/11 10:02:53;;;;;;;0.30;0.30;;;4.20;82.60;;;;;;5069360;28;20192;-67
2023/03/11 10:05:23;;;;;;;0.30;0.20;;;4.00;83.50;;;;;;5069200;28;20672;-67
2023/03/11 10:07:58;;;;;;;0.30;0.20;;;3.90;80.80;;;;;;5067525;28;20570;-68
2023/03/11 10:10:30;;;;;;;0.30;0.30;;;3.60;96.40;;;;;;5068616;28;20223;-67
2023/03/11 10:13:04;;;;;;;0.30;0.20;;;3.60;80.80;;;;;;5069767;28;20207;-67
2023/03/11 10:15:42;;;;;;;0.40;0.30;;;3.50;78.50;;;;;;5069222;28;20234;-67
2023/03/11 10:18:38;;;;;;;0.30;0.22;;;3.40;79.10;;;;;;5068006;28;20274;-68
2023/03/11 10:21:11;;;;;;;0.30;0.20;;;3.60;79.40;;;;;;5069131;28;20242;-68
2023/03/11 10:23:55;;;;;;;0.30;0.20;;;3.90;97.50;;;;;;5069164;28;20206;-67
2023/03/11 10:26:30;;;;;;;0.30;0.20;;;4.00;95.50;;;;;;5068770;28;20223;-67
2023/03/11 10:29:02;;;;;;;0.30;0.20;;;3.90;95.00;;;;;;5068469;28;20206;-69
2023/03/11 10:31:34;;;;;;;0.30;0.20;;;4.20;97.00;;;;;;5069364;28;20227;-67
2023/03/11 10:34:06;;;;;;;0.30;0.20;;;4.50;97.00;;;;;;5069339;28;20200;-67
2023/03/11 10:36:39;;;;;;;0.30;0.30;;;4.60;92.00;;;;;;5071064;28;20562;-67
2023/03/11 10:39:11;;;;;;;0.30;0.20;;;4.50;77.90;;;;;;5071489;28;20246;-67
2023/03/11 10:41:43;;;;;;;0.30;0.20;;;4.70;77.90;;;;;;5072841;28;20218;-67
2023/03/11 10:44:13;;;;;;;0.60;0.30;;;4.50;79.00;;;;;;5073006;28;20191;-67
2023/03/11 10:46:40;;;;;;;0.30;0.30;;;4.50;84.30;;;;;;5072733;28;20219;-67
2023/03/11 10:49:13;;;;;;;0.47;0.47;;;3.70;92.50;;;;;;5071453;28;20202;-67
2023/03/11 10:51:42;;;;;;;0.30;0.20;;;4.10;78.70;;;;;;5072211;28;20229;-67
2023/03/11 10:54:21;;;;;;;0.30;0.30;;;3.90;95.90;;;;;;5072816;28;20218;-67
2023/03/11 10:56:54;;;;;;;0.30;0.20;;;3.40;82.90;;;;;;5072354;28;20223;-66
2023/03/11 10:59:25;;;;;;;0.30;0.20;;;3.50;95.20;;;;;;5071487;28;20207;-66
2023/03/11 11:01:57;;;;;;;0.30;0.20;;;3.90;76.10;;;;;;5072490;28;20229;-67
2023/03/11 11:04:33;;;;;;;0.30;0.30;;;4.30;91.40;;;;;;5072793;28;20252;-67
2023/03/11 11:07:21;;;;;;;0.40;0.32;;;4.20;91.10;;;;;;5072527;28;20251;-68
2023/03/11 11:10:12;;;;;;;0.40;0.20;;;4.70;93.20;;;;;;5071566;28;20195;-67
2023/03/11 11:12:55;;;;;;;0.50;0.35;;;4.90;97.00;;;;;;5071968;28;20681;-67
2023/03/11 11:15:24;;;;;;;0.55;0.43;;;5.10;91.80;;;;;;5071949;28;20207;-67
2023/03/11 11:17:54;;;;;;;0.45;0.32;;;4.40;75.60;;;;;;5072561;28;20209;-67
2023/03/11 11:20:23;;;;;;;0.40;0.30;;;5.20;76.90;;;;;;5070674;28;20580;-67
2023/03/11 11:22:52;;;;;;;0.40;0.40;;;5.40;92.60;;;;;;5071907;28;20727;-67
2023/03/11 11:25:35;;;;;;;0.40;0.30;;;5.30;83.40;;;;;;5072235;28;20212;-67
2023/03/11 11:28:05;;;;;;;0.30;0.20;;;4.70;74.50;;;;;;5071418;28;20198;-67
2023/03/11 11:30:32;;;;;;;0.30;0.30;;;4.90;73.60;;;;;;5072186;28;20226;-67
2023/03/11 11:33:22;;;;;;;0.30;0.30;;;4.80;74.60;;;;;;5071854;28;20711;-67
2023/03/11 11:35:52;;;;;;;0.40;0.38;;;4.80;75.60;;;;;;5072001;28;20219;-67
2023/03/11 11:38:22;;;;;;;0.30;0.20;;;5.10;76.30;;;;;;5070743;28;20203;-66
2023/03/11 11:40:51;;;;;;;0.30;0.30;;;5.10;94.60;;;;;;5071635;28;20262;-66
2023/03/11 11:43:19;;;;;;;0.30;0.20;;;5.20;75.30;;;;;;5072059;28;20533;-67
2023/03/11 11:45:49;;;;;;;0.30;0.22;;;4.90;79.70;;;;;;5071333;28;20309;-67
2023/03/11 11:48:24;;;;;;;0.40;0.40;;;5.00;94.40;;;;;;5070539;28;20564;-67
2023/03/11 11:50:54;;;;;;;0.73;0.68;;;5.20;75.40;;;;;;5071544;28;20214;-66
2023/03/11 11:53:28;;;;;;;0.55;0.55;;;4.80;93.70;;;;;;5071644;28;20219;-66
2023/03/11 11:55:56;;;;;;;0.38;0.30;;;4.60;92.60;;;;;;5071695;28;20273;-67
2023/03/11 11:58:23;;;;;;;0.30;0.20;;;4.70;93.50;;;;;;5069678;28;20191;-67
2023/03/11 12:01:00;;;;;;;0.60;0.35;;;4.70;73.70;;;;;;5071211;28;20226;-67
2023/03/11 12:03:47;;;;;;;0.30;0.20;;;4.70;80.30;;;;;;5070934;28;20197;-68
2023/03/11 12:06:21;;;;;;;1.15;0.40;;;4.50;91.20;;;;;;5069088;28;20233;-67
2023/03/11 12:09:04;;;;;;;0.30;0.20;;;4.70;67.70;;;;;;5069869;28;20198;-67
2023/03/11 12:11:39;;;;;;;0.47;0.45;;;4.60;67.70;;;;;;5071254;28;20211;-67
2023/03/11 12:14:15;;;;;;;0.30;0.20;;;4.60;67.90;;;;;;5071116;28;20201;-66
2023/03/11 12:16:47;;;;;;;0.40;0.40;;;4.90;91.80;;;;;;5070797;28;20226;-67
2023/03/11 12:19:21;;;;;;;0.30;0.20;;;4.50;92.10;;;;;;5069786;28;20199;-67
2023/03/11 12:22:28;;;;;;;0.52;0.52;;;5.20;91.20;;;;;;5070908;28;20238;-67
2023/03/11 12:25:12;;;;;;;0.40;0.32;;;5.30;70.80;;;;;;5071305;28;20242;-66
2023/03/11 12:27:45;;;;;;;0.50;0.38;;;5.20;67.90;;;;;;5070558;28;20206;-67
2023/03/11 12:30:16;;;;;;;0.40;0.40;;;5.40;89.00;;;;;;5069575;28;20216;-67
2023/03/11 12:32:47;;;;;;;0.30;0.20;;;5.70;71.40;;;;;;5071028;28;20206;-66
2023/03/11 12:35:22;;;;;;;0.30;0.20;;;5.20;77.40;;;;;;5070829;28;20682;-67
2023/03/11 12:37:56;;;;;;;0.90;0.55;;;5.30;68.00;;;;;;5069628;28;20199;-67
2023/03/11 12:40:59;;;;;;;0.30;0.25;;;5.10;74.10;;;;;;5069327;28;20231;-67
2023/03/11 12:43:43;;;;;;;0.45;0.30;;;6.10;83.30;;;;;;5070384;28;20190;-67
2023/03/11 12:46:11;;;;;;;0.30;0.20;;;5.60;83.10;;;;;;5069092;28;20226;-67
2023/03/11 12:48:44;;;;;;;0.30;0.20;;;5.50;63.10;;;;;;5069080;28;20665;-68
2023/03/11 12:51:38;;;;;;;3.80;0.35;;;5.60;83.20;;;;;;5054969;28;20207;-67
2023/03/11 12:54:20;;;;;;;0.43;0.43;;;5.60;63.20;;;;;;5070327;28;20191;-66
2023/03/11 12:56:52;;;;;;;0.40;0.30;;;4.70;61.30;;;;;;5069743;28;20235;-67
2023/03/11 12:59:53;;;;;;;0.38;0.30;;;4.40;58.30;;;;;;5068361;28;20196;-67
2023/03/11 13:02:46;;;;;;;0.30;0.20;;;5.60;85.50;;;;;;5069335;28;20223;-67
2023/03/11 13:05:22;;;;;;;0.40;0.40;;;5.70;90.00;;;;;;5054385;28;20180;-67
2023/03/11 13:07:51;;;;;;;0.55;0.45;;;5.50;92.80;;;;;;5069912;28;20256;-66
2023/03/11 13:10:35;;;;;;;0.30;0.20;;;6.10;59.70;;;;;;5068917;28;20199;-67
2023/03/11 13:13:03;;;;;;;0.40;0.30;;;6.50;64.30;;;;;;5070039;28;20256;-66
2023/03/11 13:15:41;;;;;;;0.65;0.65;;;6.00;65.00;;;;;;5068751;28;20875;-67
2023/03/11 13:18:17;;;;;;;0.60;0.60;;;6.10;83.50;;;;;;5068936;28;20222;-67